createdAt,value
2017-11-04T00:02:07.795Z,12.00
2017-11-04T00:04:36.902Z,12.00
2017-11-04T00:07:05.967Z,12.00
2017-11-04T00:09:34.276Z,12.00
2017-11-04T00:12:03.356Z,12.00
2017-11-04T00:14:31.692Z,12.00
2017-11-04T00:17:00.046Z,12.00
2017-11-04T00:19:29.144Z,12.00
2017-11-04T00:21:58.506Z,12.00
2017-11-04T00:24:26.829Z,12.00
2017-11-04T00:26:55.923Z,12.00
2017-11-04T00:29:24.993Z,12.00
2017-11-04T00:31:53.314Z,11.90
2017-11-04T00:34:21.652Z,12.00
2017-11-04T00:36:50.097Z,12.00
2017-11-04T00:39:18.445Z,12.00
2017-11-04T00:41:47.536Z,12.00
2017-11-04T00:44:15.854Z,12.00
2017-11-04T00:46:44.170Z,12.00
2017-11-04T00:49:12.509Z,12.00
2017-11-04T00:51:40.838Z,12.00
2017-11-04T00:54:09.144Z,12.00
2017-11-04T00:56:37.468Z,12.00
2017-11-04T00:59:06.662Z,12.00
2017-11-04T01:01:34.963Z,12.00
2017-11-04T01:04:03.287Z,12.00
2017-11-04T01:06:32.059Z,12.00
2017-11-04T01:09:00.377Z,12.00
2017-11-04T01:11:29.487Z,12.00
2017-11-04T01:13:57.843Z,12.10
2017-11-04T01:16:26.161Z,12.10
2017-11-04T01:18:54.481Z,12.10
2017-11-04T01:21:22.784Z,12.10
2017-11-04T01:23:51.103Z,12.10
2017-11-04T01:26:19.419Z,12.10
2017-11-04T01:28:47.772Z,12.10
2017-11-04T01:31:16.087Z,12.00
2017-11-04T01:33:47.362Z,12.00
2017-11-04T01:36:17.035Z,12.00
2017-11-04T01:38:45.381Z,12.00
2017-11-04T01:41:13.771Z,12.00
2017-11-04T01:43:42.085Z,12.00
2017-11-04T01:46:10.398Z,12.00
2017-11-04T01:48:38.039Z,12.00
2017-11-04T01:51:06.371Z,12.00
2017-11-04T01:53:33.913Z,12.00
2017-11-04T01:56:02.993Z,12.10
2017-11-04T01:58:31.311Z,12.00
2017-11-04T02:00:59.629Z,12.00
2017-11-04T02:03:27.941Z,12.10
2017-11-04T02:05:56.249Z,12.10
2017-11-04T02:08:25.338Z,12.10
2017-11-04T02:10:54.408Z,12.10
2017-11-04T02:13:22.713Z,12.10
2017-11-04T02:15:51.788Z,12.10
2017-11-04T02:18:20.095Z,12.10
2017-11-04T02:20:49.166Z,12.10
2017-11-04T02:23:17.487Z,12.10
2017-11-04T02:25:45.807Z,12.10
2017-11-04T02:28:14.119Z,12.10
2017-11-04T02:30:42.447Z,12.10
2017-11-04T02:33:10.764Z,12.10
2017-11-04T02:35:39.081Z,12.10
2017-11-04T02:38:08.153Z,12.10
2017-11-04T02:40:36.471Z,12.10
2017-11-04T02:43:05.550Z,12.10
2017-11-04T02:45:33.840Z,12.10
2017-11-04T02:48:02.949Z,12.00
2017-11-04T02:50:32.029Z,12.00
2017-11-04T02:53:00.332Z,12.00
2017-11-04T02:55:28.648Z,12.00
2017-11-04T02:57:57.752Z,12.00
2017-11-04T03:00:26.073Z,12.00
2017-11-04T03:02:55.170Z,12.00
2017-11-04T03:05:23.496Z,12.00
2017-11-04T03:07:52.763Z,12.00
2017-11-04T03:10:21.851Z,12.00
2017-11-04T03:12:50.940Z,11.90
2017-11-04T03:15:19.247Z,12.00
2017-11-04T03:17:47.593Z,11.90
2017-11-04T03:20:15.919Z,11.90
2017-11-04T03:22:44.228Z,11.80
2017-11-04T03:25:12.532Z,11.80
2017-11-04T03:27:40.839Z,11.80
2017-11-04T03:30:09.174Z,11.80
2017-11-04T03:32:37.515Z,11.80
2017-11-04T03:35:06.617Z,11.70
2017-11-04T03:37:35.691Z,11.70
2017-11-04T03:40:04.782Z,11.70
2017-11-04T03:42:33.102Z,11.70
2017-11-04T03:45:01.411Z,11.70
2017-11-04T03:47:29.734Z,11.70
2017-11-04T03:49:58.066Z,11.70
2017-11-04T03:52:26.392Z,11.70
2017-11-04T03:54:54.710Z,11.70
2017-11-04T03:57:23.038Z,11.70
2017-11-04T03:59:51.348Z,11.60
2017-11-04T04:02:20.419Z,11.60
2017-11-04T04:04:48.730Z,11.60
2017-11-04T04:07:17.800Z,11.60
2017-11-04T04:09:46.098Z,11.70
2017-11-04T04:12:14.412Z,11.70
2017-11-04T04:14:42.724Z,11.70
2017-11-04T04:17:11.020Z,11.70
2017-11-04T04:19:39.331Z,11.70
2017-11-04T04:22:08.980Z,11.60
2017-11-04T04:24:37.310Z,11.60
2017-11-04T04:27:05.630Z,11.70
2017-11-04T04:29:33.934Z,11.60
2017-11-04T04:32:02.266Z,11.70
2017-11-04T04:34:31.326Z,11.70
2017-11-04T04:36:59.631Z,11.70
2017-11-04T04:39:27.954Z,11.60
2017-11-04T04:41:56.250Z,11.60
2017-11-04T04:44:24.590Z,11.60
2017-11-04T04:46:53.651Z,11.50
2017-11-04T04:49:22.001Z,11.50
2017-11-04T04:51:50.314Z,11.50
2017-11-04T04:54:18.620Z,11.50
2017-11-04T04:56:46.951Z,11.40
2017-11-04T04:59:15.282Z,11.40
2017-11-04T05:01:43.774Z,11.40
2017-11-04T05:04:12.837Z,11.40
2017-11-04T05:06:41.291Z,11.30
2017-11-04T05:09:09.616Z,11.30
2017-11-04T05:11:37.928Z,11.40
2017-11-04T05:14:06.996Z,11.30
2017-11-04T05:16:35.345Z,11.30
2017-11-04T05:19:03.658Z,11.30
2017-11-04T05:21:31.967Z,11.30
2017-11-04T05:24:01.057Z,11.30
2017-11-04T05:26:30.120Z,11.40
2017-11-04T05:28:58.444Z,11.40
2017-11-04T05:31:27.537Z,11.30
2017-11-04T05:33:56.731Z,11.30
2017-11-04T05:36:25.043Z,11.30
2017-11-04T05:38:53.361Z,11.30
2017-11-04T05:41:21.661Z,11.30
2017-11-04T05:43:49.986Z,11.30
2017-11-04T05:46:18.305Z,11.20
2017-11-04T05:48:46.629Z,11.20
2017-11-04T05:51:15.708Z,11.20
2017-11-04T05:53:44.006Z,11.20
2017-11-04T05:56:13.092Z,11.10
2017-11-04T05:58:41.430Z,11.10
2017-11-04T06:01:09.740Z,11.10
2017-11-04T06:03:38.048Z,11.00
2017-11-04T06:06:07.132Z,11.00
2017-11-04T06:08:35.431Z,11.00
2017-11-04T06:11:03.759Z,11.00
2017-11-04T06:13:32.063Z,11.00
2017-11-04T06:16:00.394Z,10.90
2017-11-04T06:18:28.697Z,10.90
2017-11-04T06:20:56.991Z,10.90
2017-11-04T06:23:25.328Z,10.90
2017-11-04T06:25:53.631Z,10.90
2017-11-04T06:28:21.955Z,10.90
2017-11-04T06:30:50.312Z,10.90
2017-11-04T06:33:18.642Z,10.80
2017-11-04T06:35:46.976Z,10.90
2017-11-04T06:38:15.296Z,10.80
2017-11-04T06:40:44.373Z,10.80
2017-11-04T06:43:12.706Z,10.80
2017-11-04T06:45:41.027Z,10.80
2017-11-04T06:48:09.362Z,10.80
2017-11-04T06:50:37.691Z,10.90
2017-11-04T06:53:06.009Z,10.90
2017-11-04T06:55:35.092Z,10.90
2017-11-04T06:58:03.398Z,10.90
2017-11-04T07:00:31.710Z,10.90
2017-11-04T07:03:00.008Z,10.90
2017-11-04T07:05:28.339Z,10.90
2017-11-04T07:07:56.663Z,10.90
2017-11-04T07:10:24.987Z,10.80
2017-11-04T07:12:54.069Z,10.90
2017-11-04T07:15:22.383Z,10.80
2017-11-04T07:17:50.750Z,10.90
2017-11-04T07:20:19.834Z,10.90
2017-11-04T07:22:48.177Z,10.90
2017-11-04T07:25:16.499Z,10.90
2017-11-04T07:27:44.834Z,10.90
2017-11-04T07:30:13.147Z,10.90
2017-11-04T07:32:41.472Z,11.00
2017-11-04T07:35:09.801Z,11.00
2017-11-04T07:37:38.246Z,11.00
2017-11-04T07:40:06.593Z,11.10
2017-11-04T07:42:35.732Z,11.20
2017-11-04T07:45:04.044Z,11.20
2017-11-04T07:47:32.407Z,11.20
2017-11-04T07:50:00.730Z,11.30
2017-11-04T07:52:29.050Z,11.30
2017-11-04T07:54:57.365Z,11.40
2017-11-04T07:57:25.704Z,11.40
2017-11-04T07:59:54.033Z,11.40
2017-11-04T08:02:22.352Z,11.40
2017-11-04T08:04:51.489Z,11.40
2017-11-04T08:07:19.812Z,11.40
2017-11-04T08:09:48.141Z,11.50
2017-11-04T08:12:16.462Z,11.50
2017-11-04T08:14:44.805Z,11.50
2017-11-04T08:17:13.128Z,11.50
2017-11-04T08:19:41.475Z,11.50
2017-11-04T08:22:09.778Z,11.60
2017-11-04T08:24:38.119Z,11.60
2017-11-04T08:27:06.483Z,11.70
2017-11-04T08:29:35.573Z,11.80
2017-11-04T08:32:03.895Z,11.80
2017-11-04T08:34:32.247Z,11.90
2017-11-04T08:37:01.339Z,11.90
2017-11-04T08:39:30.423Z,11.90
2017-11-04T08:41:58.785Z,11.90
2017-11-04T08:44:27.106Z,11.90
2017-11-04T08:46:55.435Z,11.90
2017-11-04T08:49:23.766Z,12.00
2017-11-04T08:51:52.849Z,12.10
2017-11-04T08:54:21.175Z,12.10
2017-11-04T08:56:49.497Z,12.20
2017-11-04T08:59:17.801Z,12.40
2017-11-04T09:01:46.919Z,12.70
2017-11-04T09:04:15.247Z,12.70
2017-11-04T09:06:43.565Z,12.80
2017-11-04T09:09:12.661Z,12.90
2017-11-04T09:11:41.733Z,12.90
2017-11-04T09:14:10.059Z,12.90
2017-11-04T09:16:38.377Z,12.90
2017-11-04T09:19:06.709Z,12.90
2017-11-04T09:21:35.791Z,12.90
2017-11-04T09:24:04.116Z,12.90
2017-11-04T09:26:32.448Z,12.90
2017-11-04T09:29:00.750Z,13.00
2017-11-04T09:31:29.875Z,13.00
2017-11-04T09:33:58.204Z,13.00
2017-11-04T09:36:26.509Z,13.00
2017-11-04T09:38:55.594Z,12.80
2017-11-04T09:41:24.003Z,12.80
2017-11-04T09:43:52.375Z,12.80
2017-11-04T09:46:21.477Z,12.70
2017-11-04T09:48:50.084Z,12.70
2017-11-04T09:51:18.406Z,12.70
2017-11-04T09:53:46.730Z,12.70
2017-11-04T09:56:15.810Z,12.80
2017-11-04T09:58:44.125Z,12.70
2017-11-04T10:01:12.452Z,12.80
2017-11-04T10:03:40.777Z,12.90
2017-11-04T10:06:09.864Z,13.10
2017-11-04T10:08:38.981Z,13.30
2017-11-04T10:11:07.270Z,13.30
2017-11-04T10:13:35.549Z,13.40
2017-11-04T10:16:03.886Z,13.60
2017-11-04T10:18:32.165Z,13.70
2017-11-04T10:21:00.637Z,13.90
2017-11-04T10:23:29.815Z,14.20
2017-11-04T10:25:58.223Z,14.20
2017-11-04T10:28:26.539Z,14.20
2017-11-04T10:30:57.722Z,14.20
2017-11-04T10:33:26.163Z,14.20
2017-11-04T10:35:54.481Z,14.20
2017-11-04T10:38:23.232Z,14.20
2017-11-04T10:40:52.370Z,14.20
2017-11-04T10:43:20.697Z,14.20
2017-11-04T10:45:49.536Z,14.30
2017-11-04T10:48:18.336Z,14.30
2017-11-04T10:50:47.103Z,14.30
2017-11-04T10:53:16.223Z,14.40
2017-11-04T10:55:44.532Z,14.40
2017-11-04T10:58:12.859Z,14.40
2017-11-04T11:00:42.629Z,14.40
2017-11-04T11:03:10.988Z,14.40
2017-11-04T11:05:39.306Z,14.60
2017-11-04T11:08:07.651Z,14.60
2017-11-04T11:10:35.980Z,14.70
2017-11-04T11:13:04.301Z,14.70
2017-11-04T11:15:32.623Z,14.80
2017-11-04T11:18:00.956Z,14.80
2017-11-04T11:20:29.282Z,14.90
2017-11-04T11:22:57.592Z,14.90
2017-11-04T11:25:26.687Z,15.00
2017-11-04T11:27:55.016Z,15.00
2017-11-04T11:30:23.350Z,14.90
2017-11-04T11:32:51.696Z,14.90
2017-11-04T11:35:20.646Z,14.90
2017-11-04T11:37:49.736Z,15.00
2017-11-04T11:40:18.051Z,15.00
2017-11-04T11:42:46.360Z,15.10
2017-11-04T11:45:15.009Z,15.10
2017-11-04T11:47:43.328Z,15.20
2017-11-04T11:50:11.661Z,15.20
2017-11-04T11:52:40.724Z,15.30
2017-11-04T11:55:09.032Z,15.30
2017-11-04T11:57:38.164Z,15.30
2017-11-04T12:00:06.730Z,15.30
2017-11-04T12:02:35.068Z,15.30
2017-11-04T12:05:03.400Z,15.40
2017-11-04T12:07:31.803Z,15.40
2017-11-04T12:10:00.148Z,15.40
2017-11-04T12:12:28.511Z,15.50
2017-11-04T12:14:57.613Z,15.50
2017-11-04T12:17:25.947Z,15.60
2017-11-04T12:19:54.272Z,15.60
2017-11-04T12:22:23.092Z,15.60
2017-11-04T12:24:52.179Z,15.60
2017-11-04T12:27:20.521Z,15.60
2017-11-04T12:29:48.832Z,15.60
2017-11-04T12:32:17.176Z,15.50
2017-11-04T12:34:45.490Z,15.50
2017-11-04T12:37:13.792Z,15.40
2017-11-04T12:39:42.911Z,15.30
2017-11-04T12:42:11.283Z,15.30
2017-11-04T12:44:39.649Z,15.30
2017-11-04T12:47:08.742Z,15.30
2017-11-04T12:49:37.106Z,15.30
2017-11-04T12:52:05.470Z,15.30
2017-11-04T12:54:33.815Z,15.30
2017-11-04T12:57:02.914Z,15.20
2017-11-04T12:59:32.881Z,15.20
2017-11-04T13:02:01.689Z,15.20
2017-11-04T13:04:30.037Z,15.20
2017-11-04T13:06:58.418Z,15.20
2017-11-04T13:09:26.800Z,15.30
2017-11-04T13:11:55.151Z,15.40
2017-11-04T13:14:24.321Z,15.40
2017-11-04T13:16:52.673Z,15.40
2017-11-04T13:19:21.044Z,15.40
2017-11-04T13:21:50.240Z,15.30
2017-11-04T13:24:18.614Z,15.30
2017-11-04T13:26:47.713Z,15.20
2017-11-04T13:29:16.956Z,15.10
2017-11-04T13:31:45.326Z,15.10
2017-11-04T13:34:13.735Z,15.00
2017-11-04T13:36:42.883Z,14.90
2017-11-04T13:39:11.237Z,14.90
2017-11-04T13:41:40.371Z,14.70
2017-11-04T13:44:08.732Z,14.70
2017-11-04T13:46:37.806Z,14.60
2017-11-04T13:49:06.121Z,14.60
2017-11-04T13:51:35.193Z,14.50
2017-11-04T13:54:03.540Z,14.40
2017-11-04T13:56:31.871Z,14.40
2017-11-04T13:59:00.956Z,14.20
2017-11-04T14:01:29.263Z,14.20
2017-11-04T14:03:58.333Z,14.10
2017-11-04T14:06:26.641Z,14.00
2017-11-04T14:08:54.942Z,14.00
2017-11-04T14:11:23.249Z,13.90
2017-11-04T14:13:51.595Z,13.90
2017-11-04T14:16:19.986Z,13.80
2017-11-04T14:18:48.299Z,13.70
2017-11-04T14:21:16.680Z,13.70
2017-11-04T14:23:44.989Z,13.70
2017-11-04T14:26:13.303Z,13.60
2017-11-04T14:28:41.596Z,13.60
2017-11-04T14:31:09.909Z,13.60
2017-11-04T14:33:38.214Z,13.60
2017-11-04T14:36:06.511Z,13.60
2017-11-04T14:38:35.663Z,13.60
2017-11-04T14:41:03.975Z,13.60
2017-11-04T14:43:32.315Z,13.60
2017-11-04T14:46:01.319Z,13.50
2017-11-04T14:48:29.655Z,13.40
2017-11-04T14:50:58.810Z,13.30
2017-11-04T14:53:27.121Z,13.30
2017-11-04T14:55:55.447Z,13.20
2017-11-04T14:58:23.761Z,13.20
2017-11-04T15:00:52.100Z,13.10
2017-11-04T15:03:20.397Z,13.10
2017-11-04T15:05:48.692Z,13.10
2017-11-04T15:08:16.997Z,13.00
2017-11-04T15:10:45.303Z,13.00
2017-11-04T15:13:13.633Z,12.90
2017-11-04T15:15:41.989Z,12.90
2017-11-04T15:18:10.291Z,12.90
2017-11-04T15:20:38.609Z,12.80
2017-11-04T15:23:07.061Z,12.80
2017-11-04T15:25:35.354Z,12.80
2017-11-04T15:28:03.695Z,12.80
2017-11-04T15:30:32.774Z,12.80
2017-11-04T15:33:01.864Z,12.80
2017-11-04T15:35:30.195Z,12.80
2017-11-04T15:37:58.520Z,12.70
2017-11-04T15:40:26.830Z,12.70
2017-11-04T15:42:55.899Z,12.70
2017-11-04T15:45:24.207Z,12.70
2017-11-04T15:47:53.309Z,12.60
2017-11-04T15:50:22.397Z,12.60
2017-11-04T15:52:50.708Z,12.50
2017-11-04T15:55:19.127Z,12.50
2017-11-04T15:57:47.460Z,12.50
2017-11-04T16:00:16.527Z,12.50
2017-11-04T16:02:44.882Z,12.50
2017-11-04T16:05:13.275Z,12.50
2017-11-04T16:07:41.655Z,12.50
2017-11-04T16:10:10.055Z,12.40
2017-11-04T16:12:38.420Z,12.50
2017-11-04T16:15:06.799Z,12.40
2017-11-04T16:17:35.186Z,12.50
2017-11-04T16:20:03.506Z,12.50
2017-11-04T16:22:32.572Z,12.50
2017-11-04T16:25:00.879Z,12.50
2017-11-04T16:27:29.198Z,12.50
2017-11-04T16:29:57.489Z,12.50
2017-11-04T16:32:25.813Z,12.50
2017-11-04T16:34:54.562Z,12.50
2017-11-04T16:37:22.876Z,12.60
2017-11-04T16:39:51.186Z,12.60
2017-11-04T16:42:19.509Z,12.60
2017-11-04T16:44:47.826Z,12.60
2017-11-04T16:47:16.129Z,12.60
2017-11-04T16:49:44.429Z,12.70
2017-11-04T16:52:13.516Z,12.70
2017-11-04T16:54:42.580Z,12.70
2017-11-04T16:57:10.888Z,12.70
2017-11-04T16:59:39.210Z,12.70
2017-11-04T17:02:07.534Z,12.70
2017-11-04T17:04:35.867Z,12.80
2017-11-04T17:07:04.172Z,12.80
2017-11-04T17:09:32.472Z,12.80
2017-11-04T17:12:00.776Z,12.80
2017-11-04T17:14:29.084Z,12.80
2017-11-04T17:16:57.367Z,12.80
2017-11-04T17:19:25.682Z,12.80
2017-11-04T17:21:53.990Z,12.80
2017-11-04T17:24:22.289Z,12.80
2017-11-04T17:26:51.365Z,12.90
2017-11-04T17:29:19.656Z,12.90
2017-11-04T17:31:47.973Z,12.90
2017-11-04T17:34:16.309Z,12.90
2017-11-04T17:36:44.626Z,12.90
2017-11-04T17:39:12.945Z,12.90
2017-11-04T17:41:41.245Z,12.90
2017-11-04T17:44:09.579Z,12.90
2017-11-04T17:46:37.874Z,12.90
2017-11-04T17:49:06.254Z,12.90
2017-11-04T17:51:34.574Z,12.90
2017-11-04T17:54:02.874Z,12.90
2017-11-04T17:56:32.251Z,12.90
2017-11-04T17:59:00.550Z,12.90
2017-11-04T18:01:28.888Z,12.90
2017-11-04T18:03:57.213Z,12.90
2017-11-04T18:06:25.675Z,12.90
2017-11-04T18:08:53.974Z,13.00
2017-11-04T18:11:22.272Z,13.00
2017-11-04T18:13:50.634Z,13.00
2017-11-04T18:16:18.958Z,13.00
2017-11-04T18:18:48.214Z,13.00
2017-11-04T18:21:16.592Z,13.00
2017-11-04T18:23:44.911Z,13.10
2017-11-04T18:26:13.270Z,13.10
2017-11-04T18:28:41.574Z,13.10
2017-11-04T18:31:10.334Z,13.10
2017-11-04T18:33:39.265Z,13.20
2017-11-04T18:36:07.599Z,13.20
2017-11-04T18:38:35.912Z,13.20
2017-11-04T18:41:04.222Z,13.20
2017-11-04T18:43:33.317Z,13.20
2017-11-04T18:46:02.402Z,13.20
2017-11-04T18:48:32.229Z,13.20
2017-11-04T18:51:01.326Z,13.20
2017-11-04T18:53:29.620Z,13.20
2017-11-04T18:55:57.926Z,13.20
2017-11-04T18:58:26.236Z,13.20
2017-11-04T19:00:54.540Z,13.20
2017-11-04T19:03:22.853Z,13.20
2017-11-04T19:05:51.192Z,13.20
2017-11-04T19:08:19.528Z,13.20
2017-11-04T19:10:47.820Z,13.20
2017-11-04T19:13:16.223Z,13.20
2017-11-04T19:15:44.676Z,13.20
2017-11-04T19:18:12.976Z,13.20
2017-11-04T19:20:41.278Z,13.20
2017-11-04T19:23:09.596Z,13.20
2017-11-04T19:25:38.681Z,13.10
2017-11-04T19:28:07.039Z,13.10
2017-11-04T19:30:35.356Z,13.10
2017-11-04T19:33:04.417Z,13.00
2017-11-04T19:35:32.717Z,13.00
2017-11-04T19:38:01.036Z,12.90
2017-11-04T19:40:29.336Z,12.90
2017-11-04T19:42:57.718Z,12.80
2017-11-04T19:45:26.005Z,12.70
2017-11-04T19:47:54.302Z,12.60
2017-11-04T19:50:22.603Z,12.60
2017-11-04T19:52:50.935Z,12.70
2017-11-04T19:55:19.360Z,12.60
2017-11-04T19:57:47.669Z,12.60
2017-11-04T20:00:15.994Z,12.70
2017-11-04T20:02:44.315Z,12.60
2017-11-04T20:05:12.620Z,12.60
2017-11-04T20:07:41.684Z,12.60
2017-11-04T20:10:09.984Z,12.60
2017-11-04T20:12:38.276Z,12.60
2017-11-04T20:15:06.590Z,12.60
2017-11-04T20:17:34.909Z,12.60
2017-11-04T20:20:03.228Z,12.60
2017-11-04T20:22:32.353Z,12.60
2017-11-04T20:25:00.654Z,12.60
2017-11-04T20:27:28.956Z,12.60
2017-11-04T20:29:57.271Z,12.60
2017-11-04T20:32:26.328Z,12.60
2017-11-04T20:34:54.655Z,12.60
2017-11-04T20:37:23.715Z,12.50
2017-11-04T20:39:52.022Z,12.50
2017-11-04T20:42:20.404Z,12.50
2017-11-04T20:44:48.715Z,12.50
2017-11-04T20:47:17.015Z,12.50
2017-11-04T20:49:45.311Z,12.50
2017-11-04T20:52:13.694Z,12.50
2017-11-04T20:54:42.010Z,12.50
2017-11-04T20:57:10.465Z,12.50
2017-11-04T20:59:38.867Z,12.50
2017-11-04T21:02:07.203Z,12.50
2017-11-04T21:04:35.503Z,12.50
2017-11-04T21:07:03.792Z,12.50
2017-11-04T21:09:32.206Z,12.50
2017-11-04T21:12:00.643Z,12.50
2017-11-04T21:14:28.951Z,12.50
2017-11-04T21:16:57.269Z,12.50
2017-11-04T21:19:26.355Z,12.50
2017-11-04T21:21:55.435Z,12.50
2017-11-04T21:24:23.805Z,12.50
2017-11-04T21:26:52.124Z,12.50
2017-11-04T21:29:21.185Z,12.50
2017-11-04T21:31:49.519Z,12.50
2017-11-04T21:34:18.595Z,12.50
2017-11-04T21:36:46.893Z,12.50
2017-11-04T21:39:15.972Z,12.50
2017-11-04T21:41:44.267Z,12.50
2017-11-04T21:44:13.313Z,12.50
2017-11-04T21:46:41.663Z,12.50
2017-11-04T21:49:09.976Z,12.50
2017-11-04T21:51:38.273Z,12.60
2017-11-04T21:54:06.571Z,12.60
2017-11-04T21:56:35.650Z,12.60
2017-11-04T21:59:03.953Z,12.60
2017-11-04T22:01:32.263Z,12.60
2017-11-04T22:04:01.327Z,12.60
2017-11-04T22:06:29.627Z,12.60
2017-11-04T22:08:57.971Z,12.70
2017-11-04T22:11:26.356Z,12.80
2017-11-04T22:13:54.750Z,12.80
2017-11-04T22:16:23.126Z,12.80
2017-11-04T22:18:51.430Z,12.80
2017-11-04T22:21:21.336Z,12.70
2017-11-04T22:23:49.639Z,12.70
2017-11-04T22:26:17.960Z,12.70
2017-11-04T22:28:46.255Z,12.70
2017-11-04T22:31:14.545Z,12.70
2017-11-04T22:33:42.847Z,12.60
2017-11-04T22:36:11.145Z,12.50
2017-11-04T22:38:39.446Z,12.40
2017-11-04T22:41:08.519Z,12.30
2017-11-04T22:43:37.589Z,12.30
2017-11-04T22:46:05.909Z,12.30
2017-11-04T22:48:35.067Z,12.20
2017-11-04T22:51:03.366Z,12.20
2017-11-04T22:53:31.680Z,12.20
2017-11-04T22:56:00.741Z,12.10
2017-11-04T22:58:29.055Z,12.20
2017-11-04T23:00:58.214Z,12.10
2017-11-04T23:03:26.501Z,12.10
2017-11-04T23:05:54.812Z,12.20
2017-11-04T23:08:23.134Z,12.20
2017-11-04T23:10:51.448Z,12.20
2017-11-04T23:13:19.755Z,12.20
2017-11-04T23:15:48.849Z,12.10
2017-11-04T23:18:17.155Z,12.10
2017-11-04T23:20:46.235Z,12.20
2017-11-04T23:23:14.537Z,12.10
2017-11-04T23:25:43.621Z,12.10
2017-11-04T23:28:12.695Z,12.00
2017-11-04T23:30:41.002Z,12.00
2017-11-04T23:33:10.239Z,11.80
2017-11-04T23:35:38.546Z,11.80
2017-11-04T23:38:06.871Z,11.70
2017-11-04T23:40:35.938Z,11.60
2017-11-04T23:43:04.316Z,11.50
2017-11-04T23:45:32.648Z,11.40
2017-11-04T23:48:01.722Z,11.30
2017-11-04T23:50:30.024Z,11.30
2017-11-04T23:52:59.111Z,11.30
2017-11-04T23:55:28.205Z,11.20
2017-11-04T23:57:56.506Z,11.20
